Time;durP1;ratioP1;P1;durP2;ratioP2;P2;SDS_P1;SDS_P2;PMS_P1;PMS_P2;Temp;Humidity;BMP_temperature;BMP_pressure;BME280_temperature;BME280_humidity;BME280_pressure;Samples;Min_cycle;Max_cycle;Signal;HPM_P1;HPM_P2
2022/02/10 00:18:24;;;;;;;24.17;17.90;;;;;;;3.40;100.00;101333.00;5013025;28;20036;-71
2022/02/10 00:20:57;;;;;;;22.60;17.40;;;;;;;3.23;100.00;101301.59;5013125;28;20094;-74
2022/02/10 00:23:36;;;;;;;27.15;21.30;;;;;;;2.86;100.00;101330.03;5013143;28;20041;-73
2022/02/10 00:34:24;;;;;;;25.35;18.90;;;;;;;2.53;100.00;101331.69;5013031;28;20092;-73
2022/02/10 00:37:37;;;;;;;23.77;18.77;;;;;;;2.65;100.00;101342.88;5012707;28;20053;-72
2022/02/10 00:42:05;;;;;;;23.13;17.88;;;;;;;2.70;100.00;101335.47;5011610;28;20034;-72
2022/02/10 00:44:31;;;;;;;26.05;18.08;;;;;;;1.96;100.00;101315.06;5012539;28;20412;-73
2022/02/10 00:46:56;;;;;;;23.88;18.52;;;;;;;2.05;100.00;101343.75;5012857;28;20038;-72
2022/02/10 00:49:22;;;;;;;27.42;18.80;;;;;;;2.02;100.00;101353.66;5012832;28;20088;-72
2022/02/10 00:51:49;;;;;;;23.25;17.77;;;;;;;2.00;100.00;101309.31;5011360;28;20493;-71
2022/02/10 00:54:18;;;;;;;33.58;17.83;;;;;;;2.08;100.00;101316.22;5012390;28;20471;-71
2022/02/10 00:56:44;;;;;;;25.77;17.23;;;;;;;2.18;100.00;101355.81;5012675;28;20120;-72
2022/02/10 00:59:21;;;;;;;25.58;17.13;;;;;;;2.14;100.00;101318.06;5011860;28;20125;-72
2022/02/10 01:12:54;;;;;;;25.38;14.98;;;;;;;2.45;100.00;101298.88;5011789;28;20068;-71
2022/02/10 01:31:44;;;;;;;25.05;14.57;;;;;;;2.58;100.00;101312.56;5011058;28;20128;-69
2022/02/10 01:34:09;;;;;;;23.00;14.93;;;;;;;2.64;100.00;101290.13;5011271;28;20117;-70
2022/02/10 01:36:35;;;;;;;22.45;15.45;;;;;;;3.00;100.00;101305.25;5010058;28;20030;-70
2022/02/10 01:39:01;;;;;;;25.17;15.25;;;;;;;2.65;100.00;101335.34;5011240;28;20037;-71
2022/02/10 01:58:26;;;;;;;26.63;19.50;;;;;;;2.41;100.00;101291.22;5011123;28;20045;-70
2022/02/10 02:03:36;;;;;;;30.08;20.60;;;;;;;2.57;100.00;101356.91;5011195;28;20064;-70
2022/02/10 02:06:08;;;;;;;35.30;21.27;;;;;;;2.42;100.00;101355.63;5010894;28;20026;-70
2022/02/10 02:08:36;;;;;;;27.92;20.42;;;;;;;2.29;100.00;101313.47;5009823;28;20030;-71
2022/02/10 02:11:03;;;;;;;32.50;22.20;;;;;;;2.59;100.00;101355.25;5010937;28;20034;-70
2022/02/10 02:13:29;;;;;;;33.25;22.92;;;;;;;2.11;100.00;101283.72;5009385;28;20121;-70
2022/02/10 02:15:55;;;;;;;36.38;24.30;;;;;;;2.51;100.00;101354.22;5010997;28;20503;-69
2022/02/10 02:18:21;;;;;;;34.88;24.95;;;;;;;2.37;100.00;101337.97;5009508;28;20120;-70
2022/02/10 02:20:49;;;;;;;41.05;25.77;;;;;;;2.04;100.00;101326.97;5010846;28;20504;-70
2022/02/10 02:23:19;;;;;;;34.95;22.83;;;;;;;2.34;100.00;101372.13;5009460;28;20129;-70
2022/02/10 02:25:49;;;;;;;37.00;22.45;;;;;;;1.71;100.00;101331.03;5010852;28;20496;-70
2022/02/10 02:28:14;;;;;;;35.50;22.30;;;;;;;1.74;100.00;101377.09;5010816;28;20037;-71
2022/02/10 02:30:54;;;;;;;32.38;22.50;;;;;;;1.69;100.00;101382.75;5010716;28;20026;-70
2022/02/10 03:06:19;;;;;;;31.08;20.42;;;;;;;2.57;100.00;101356.91;5013202;28;20077;-70
2022/02/10 03:08:18;;;;;;;40.97;24.35;;;;;;;2.03;100.00;101321.94;5009924;28;20038;-71
2022/02/10 03:13:17;;;;;;;32.38;23.20;;;;;;;1.70;100.00;101300.09;5013922;28;20029;-71
2022/02/10 04:05:15;;;;;;;38.45;25.70;;;;;;;1.38;100.00;101372.63;5013151;28;20037;-71
2022/02/10 04:20:57;;;;;;;41.75;32.13;;;;;;;1.64;100.00;101372.59;5011641;28;20041;-69
2022/02/10 05:34:52;;;;;;;67.03;47.00;;;;;;;0.81;100.00;101377.41;5011202;28;20026;-70
2022/02/10 05:37:20;;;;;;;74.93;45.42;;;;;;;0.77;100.00;101402.31;5009968;28;20061;-70
2022/02/10 05:39:48;;;;;;;74.32;43.85;;;;;;;0.24;100.00;101362.91;5010857;28;20478;-71
2022/02/10 05:48:07;;;;;;;62.28;41.95;;;;;;;0.58;100.00;101385.81;5011156;28;20029;-70
2022/02/10 05:55:40;;;;;;;45.90;30.83;;;;;;;1.60;100.00;101398.41;5009564;28;20037;-70
2022/02/10 06:43:44;;;;;;;68.03;45.28;;;;;;;10.29;98.66;101418.16;5014756;28;20069;-70
2022/02/10 07:03:58;;;;;;;76.45;58.10;;;;;;;10.48;100.00;101450.28;5014303;28;20056;-71
2022/02/10 07:06:51;;;;;;;77.85;52.72;;;;;;;9.67;100.00;101412.34;5014578;28;20034;-73
2022/02/10 07:17:18;;;;;;;91.97;63.95;;;;;;;6.40;100.00;101398.72;5014221;28;20125;-71
2022/02/10 07:46:25;;;;;;;41.55;30.90;;;;;;;6.73;100.00;101462.31;5014076;28;20056;-73
2022/02/10 07:52:39;;;;;;;33.13;24.83;;;;;;;7.39;100.00;101446.94;5013927;28;20065;-71
2022/02/10 08:55:36;;;;;;;21.45;15.70;;;;;;;8.99;100.00;101407.28;4990659;28;20093;-71
2022/02/10 09:05:46;;;;;;;20.08;15.50;;;;;;;9.81;100.00;101430.09;5012257;28;20030;-71
2022/02/10 09:56:20;;;;;;;12.32;9.90;;;;;;;11.60;100.00;101385.06;5011573;28;20041;-71
2022/02/10 09:59:24;;;;;;;33.22;21.35;;;;;;;11.71;100.00;101347.59;5011556;28;20472;-71
2022/02/10 10:02:19;;;;;;;13.60;11.35;;;;;;;11.74;100.00;101360.34;5010931;28;20141;-71
2022/02/10 10:04:59;;;;;;;10.60;8.73;;;;;;;12.30;100.00;101374.97;5010178;28;20084;-71
2022/02/10 10:11:23;;;;;;;13.57;10.52;;;;;;;12.52;100.00;101368.75;5011309;28;20069;-71
2022/02/10 10:13:26;;;;;;;12.75;10.63;;;;;;;12.34;100.00;101367.25;5004559;28;20038;-70
2022/02/10 10:54:11;;;;;;;5.90;4.07;;;;;;;13.90;67.90;101271.84;5014534;28;20038;-71
2022/02/10 10:58:44;;;;;;;23.52;9.57;;;;;;;13.96;65.01;101288.81;5014252;28;20034;-71
2022/02/10 11:04:24;;;;;;;10.80;7.45;;;;;;;13.70;68.76;101306.38;5014309;28;20054;-71
2022/02/10 11:38:26;;;;;;;8.43;4.90;;;;;;;15.46;63.03;101250.19;5013908;28;20052;-72
2022/02/10 11:43:47;;;;;;;7.85;5.60;;;;;;;14.32;63.59;101246.28;5013873;28;20048;-71
2022/02/10 14:15:20;;;;;;;9.98;6.03;;;;;;;18.23;46.99;101136.22;5011609;28;20069;-73
2022/02/10 14:17:45;;;;;;;11.90;5.68;;;;;;;18.76;46.36;101143.41;5011286;28;20034;-74
2022/02/10 14:20:32;;;;;;;17.55;9.30;;;;;;;19.15;44.27;101137.44;5011594;28;20034;-73
2022/02/10 14:23:06;;;;;;;14.15;8.07;;;;;;;19.90;43.72;101162.31;5011321;28;20483;-73
2022/02/10 14:26:43;;;;;;;10.63;4.80;;;;;;;19.58;44.61;101148.34;5011532;28;20476;-75
2022/02/10 14:28:27;;;;;;;12.82;6.68;;;;;;;19.23;44.58;101179.19;5006292;28;20091;-73
2022/02/10 14:30:54;;;;;;;16.23;8.20;;;;;;;19.09;45.53;101154.00;5011310;28;20506;-72
2022/02/10 14:33:27;;;;;;;14.10;7.13;;;;;;;17.85;46.01;101120.56;5011248;28;20479;-72
2022/02/10 14:36:01;;;;;;;10.70;5.93;;;;;;;19.25;44.92;101130.94;5011214;28;20038;-72
2022/02/10 14:39:11;;;;;;;16.05;8.00;;;;;;;19.03;45.62;101170.56;5011782;28;20033;-75
2022/02/10 15:15:10;;;;;;;19.55;8.15;;;;;;;15.01;54.99;101106.25;5014434;28;20037;-73
2022/02/10 15:47:46;;;;;;;21.98;13.38;;;;;;;11.85;84.42;101162.28;4994604;28;20041;-74
2022/02/10 16:11:11;;;;;;;79.57;41.00;;;;;;;10.89;97.22;101169.41;5013023;28;20176;-75
2022/02/10 16:16:51;;;;;;;78.10;43.50;;;;;;;10.54;99.72;101176.53;4992618;28;20052;-74
2022/02/10 16:19:06;;;;;;;73.60;41.00;;;;;;;10.32;100.00;101141.09;5013011;28;20038;-73
2022/02/10 16:21:38;;;;;;;66.47;41.72;;;;;;;10.50;100.00;101167.22;5012165;28;20471;-73
2022/02/10 16:24:15;;;;;;;63.33;39.47;;;;;;;10.29;100.00;101140.28;5011653;28;20033;-72
2022/02/10 16:26:53;;;;;;;67.45;41.80;;;;;;;10.26;100.00;101171.63;5000701;28;20039;-73
2022/02/10 16:29:19;;;;;;;64.78;39.50;;;;;;;10.06;100.00;101144.66;4992555;28;20042;-76
2022/02/10 16:31:45;;;;;;;58.30;38.63;;;;;;;9.91;100.00;101173.53;4993740;28;20038;-75
2022/02/10 16:34:11;;;;;;;61.45;38.22;;;;;;;9.86;100.00;101176.97;4992345;28;20104;-72
2022/02/10 16:36:37;;;;;;;54.13;34.25;;;;;;;9.50;100.00;101140.78;4993291;28;20037;-72
2022/02/10 16:39:03;;;;;;;45.70;31.33;;;;;;;9.43;100.00;101181.38;4993558;28;20034;-74
2022/02/10 16:41:29;;;;;;;53.97;28.17;;;;;;;9.05;100.00;101183.22;4993556;28;20034;-73
2022/02/10 16:43:54;;;;;;;52.40;29.45;;;;;;;9.47;100.00;101176.31;4993208;28;20086;-74
2022/02/10 16:46:22;;;;;;;46.78;28.70;;;;;;;9.36;100.00;101141.69;4992359;28;20030;-74
2022/02/10 16:48:48;;;;;;;72.95;41.83;;;;;;;9.39;100.00;101155.19;4993207;28;20523;-72
2022/02/10 16:51:13;;;;;;;70.68;48.30;;;;;;;9.84;100.00;101181.22;4992682;28;20022;-72
2022/02/10 16:53:42;;;;;;;78.95;47.67;;;;;;;9.04;100.00;101143.47;4991641;28;20057;-74
2022/02/10 16:56:16;;;;;;;74.20;46.95;;;;;;;9.08;100.00;101185.75;4991813;28;20116;-73
2022/02/10 16:58:49;;;;;;;81.80;49.45;;;;;;;8.89;100.00;101148.59;5008148;28;20038;-71
2022/02/10 17:01:37;;;;;;;84.95;54.10;;;;;;;8.75;100.00;101130.88;5009820;28;20034;-72
2022/02/10 17:25:20;;;;;;;132.77;91.75;;;;;;;8.06;100.00;101154.50;4992596;28;20095;-72
2022/02/10 17:27:53;;;;;;;161.77;100.97;;;;;;;7.82;100.00;101151.97;5011344;28;20455;-72
2022/02/10 17:51:45;;;;;;;144.90;99.00;;;;;;;7.19;100.00;101187.97;5012157;28;20037;-72
2022/02/10 17:54:12;;;;;;;119.30;81.43;;;;;;;7.51;100.00;101128.25;5011080;28;20049;-72
2022/02/10 17:56:39;;;;;;;117.50;85.57;;;;;;;7.24;100.00;101137.44;5010877;28;20121;-72
2022/02/10 17:59:04;;;;;;;127.10;90.55;;;;;;;7.24;100.00;101158.50;5011764;28;20040;-72
2022/02/10 18:01:30;;;;;;;130.02;89.05;;;;;;;7.13;100.00;101152.53;5011810;28;20034;-72
2022/02/10 18:03:56;;;;;;;125.05;86.72;;;;;;;7.23;100.00;101193.91;5010378;28;20511;-71
2022/02/10 18:06:27;;;;;;;123.50;87.55;;;;;;;7.49;100.00;101154.38;5011527;28;20030;-72
2022/02/10 18:14:55;;;;;;;194.10;127.78;;;;;;;7.09;100.00;101150.84;5011821;28;20072;-72
2022/02/10 18:17:43;;;;;;;159.38;103.85;;;;;;;6.77;100.00;101191.06;5006026;28;20111;-72
2022/02/10 18:22:33;;;;;;;36.88;24.27;;;;;;;5.75;100.00;101167.41;5011849;28;20034;-73
2022/02/10 18:27:43;;;;;;;48.55;28.40;;;;;;;6.06;100.00;101121.53;5011775;28;20038;-72
2022/02/10 19:10:22;;;;;;;70.88;44.25;;;;;;;5.70;100.00;101214.47;5014848;28;20034;-74
2022/02/10 19:12:54;;;;;;;105.45;61.20;;;;;;;5.95;100.00;101203.84;5013450;28;20037;-72
2022/02/10 19:15:32;;;;;;;110.07;65.63;;;;;;;6.14;100.00;101186.34;5014628;28;20030;-73
2022/02/10 19:17:58;;;;;;;100.90;57.15;;;;;;;5.57;100.00;101218.50;5014425;28;20030;-72
2022/02/10 19:20:24;;;;;;;112.30;71.18;;;;;;;5.62;100.00;101194.19;5013366;28;20088;-72
2022/02/10 19:22:50;;;;;;;142.43;90.75;;;;;;;5.93;100.00;101213.91;5014484;28;20022;-73
2022/02/10 19:25:16;;;;;;;161.25;109.03;;;;;;;5.55;100.00;101212.59;5014197;28;20041;-72
2022/02/10 19:27:43;;;;;;;143.32;94.15;;;;;;;5.79;100.00;101209.50;5013168;28;20481;-72
2022/02/10 19:30:12;;;;;;;150.07;98.70;;;;;;;5.82;100.00;101199.47;5013294;28;20072;-73
2022/02/10 19:32:42;;;;;;;143.88;96.32;;;;;;;5.22;100.00;101179.41;5014527;28;20087;-75
2022/02/10 19:35:08;;;;;;;237.18;138.48;;;;;;;5.64;100.00;101210.19;5013450;28;20064;-74
2022/02/10 19:37:34;;;;;;;258.13;157.93;;;;;;;5.27;100.00;101203.84;5013146;28;20026;-73
2022/02/10 19:40:02;;;;;;;167.82;111.70;;;;;;;5.37;100.00;101171.19;5014030;28;20048;-72
2022/02/10 19:42:32;;;;;;;171.80;111.15;;;;;;;5.17;100.00;101161.69;5014203;28;20034;-73
2022/02/10 19:45:01;;;;;;;176.88;109.93;;;;;;;5.43;100.00;101193.97;5012794;28;20044;-73
2022/02/10 19:47:28;;;;;;;162.30;102.95;;;;;;;5.04;100.00;101189.22;5013394;28;20488;-73
2022/02/10 19:49:54;;;;;;;140.65;93.72;;;;;;;5.33;100.00;101210.63;5013093;28;20117;-72
2022/02/10 19:52:20;;;;;;;131.63;89.53;;;;;;;5.42;100.00;101199.81;5014017;28;20046;-73
2022/02/10 19:54:50;;;;;;;127.90;86.28;;;;;;;5.26;100.00;101204.69;5013869;28;20036;-72
2022/02/10 19:57:17;;;;;;;127.57;87.07;;;;;;;5.22;100.00;101210.50;5013945;28;20076;-72
2022/02/10 19:59:43;;;;;;;130.95;85.88;;;;;;;5.04;100.00;101174.97;5013754;28;20125;-71
2022/02/10 20:02:09;;;;;;;122.35;84.25;;;;;;;5.11;100.00;101203.63;5012677;28;20136;-74
2022/02/10 20:04:34;;;;;;;136.88;89.82;;;;;;;5.22;100.00;101202.09;5013648;28;20034;-72
2022/02/10 20:07:00;;;;;;;156.75;105.85;;;;;;;5.53;100.00;101200.78;5014052;28;20030;-72
2022/02/10 20:09:25;;;;;;;228.88;149.70;;;;;;;5.11;100.00;101203.63;5013582;28;20088;-73
2022/02/10 20:11:51;;;;;;;304.27;201.98;;;;;;;4.75;100.00;101173.72;5012703;28;20029;-71
2022/02/10 20:14:21;;;;;;;246.30;158.45;;;;;;;4.60;100.00;101176.00;5013798;28;20107;-74
2022/02/10 20:16:48;;;;;;;78.03;50.03;;;;;;;4.41;100.00;101174.03;5012513;28;20037;-74
2022/02/10 20:19:13;;;;;;;53.78;35.40;;;;;;;4.35;100.00;101209.16;5013640;28;20085;-74
2022/02/10 20:21:39;;;;;;;45.35;31.42;;;;;;;4.26;100.00;101224.06;5014128;28;20034;-73
2022/02/10 20:24:05;;;;;;;44.25;29.00;;;;;;;4.25;100.00;101188.03;5013208;28;20037;-73
2022/02/10 20:26:31;;;;;;;48.58;28.05;;;;;;;4.26;100.00;101209.84;5011943;28;20072;-72
2022/02/10 20:28:56;;;;;;;57.58;38.83;;;;;;;3.83;100.00;101207.38;5013467;28;20057;-73
2022/02/10 20:31:23;;;;;;;77.40;49.65;;;;;;;4.39;100.00;101205.88;5013639;28;20030;-73
2022/02/10 20:33:49;;;;;;;45.03;31.67;;;;;;;4.30;100.00;101200.66;5013033;28;20527;-71
2022/02/10 20:36:15;;;;;;;53.53;35.55;;;;;;;4.55;100.00;101197.75;5013249;28;20034;-72
2022/02/10 20:38:44;;;;;;;94.03;61.50;;;;;;;4.77;100.00;101199.78;5013210;28;20423;-72
2022/02/10 20:41:14;;;;;;;64.45;43.15;;;;;;;4.07;100.00;101196.91;5013279;28;20030;-73
2022/02/10 20:43:41;;;;;;;75.88;49.03;;;;;;;4.30;100.00;101198.16;5011834;28;20506;-72
2022/02/10 20:46:09;;;;;;;87.20;53.17;;;;;;;4.25;100.00;101183.00;5013150;28;20038;-73
2022/02/10 20:48:37;;;;;;;77.78;48.22;;;;;;;4.14;100.00;101174.41;5011860;28;20030;-73
2022/02/10 20:51:06;;;;;;;68.35;41.05;;;;;;;4.24;100.00;101171.22;5013044;28;20030;-73
2022/02/10 20:53:33;;;;;;;64.90;40.47;;;;;;;4.18;100.00;101180.34;5012003;28;20030;-73
2022/02/10 20:56:02;;;;;;;61.28;39.15;;;;;;;3.97;100.00;101139.72;5011816;28;20038;-73
2022/02/10 20:58:30;;;;;;;55.42;37.03;;;;;;;4.12;100.00;101172.69;5009568;28;20034;-73
2022/02/10 21:00:59;;;;;;;47.83;33.45;;;;;;;4.18;100.00;101142.59;5005075;28;20033;-74
2022/02/10 21:03:27;;;;;;;57.50;35.95;;;;;;;4.29;100.00;101173.81;5007641;28;20145;-74
2022/02/10 21:06:03;;;;;;;57.90;40.85;;;;;;;3.95;100.00;101132.16;5001383;28;20022;-73
2022/02/10 21:11:06;;;;;;;68.20;45.55;;;;;;;3.91;100.00;101142.13;5012810;28;20033;-74
2022/02/10 21:13:33;;;;;;;75.47;47.03;;;;;;;4.18;100.00;101122.47;5012501;28;20084;-74
2022/02/10 21:15:58;;;;;;;71.97;47.20;;;;;;;4.07;100.00;101166.72;5012239;28;20040;-73
2022/02/10 21:18:25;;;;;;;78.60;50.00;;;;;;;3.68;100.00;101160.97;5011269;28;20037;-74
2022/02/10 21:20:57;;;;;;;78.72;48.33;;;;;;;4.05;100.00;101163.31;5012342;28;20041;-74
2022/02/10 21:23:42;;;;;;;54.10;35.65;;;;;;;4.33;100.00;101151.25;5012523;28;20037;-73
2022/02/10 21:26:07;;;;;;;78.63;50.83;;;;;;;4.12;100.00;101155.09;5011429;28;20029;-74
2022/02/10 21:28:36;;;;;;;85.68;54.20;;;;;;;4.21;100.00;101142.63;5011035;28;20539;-73
2022/02/10 21:31:05;;;;;;;102.00;60.88;;;;;;;3.88;100.00;101107.69;5012519;28;20061;-73
2022/02/10 21:39:14;;;;;;;105.55;65.53;;;;;;;4.24;100.00;101142.69;5000072;28;20139;-71
2022/02/10 22:11:03;;;;;;;145.00;90.18;;;;;;;3.84;100.00;101105.13;5015429;28;20037;-71
2022/02/10 22:23:52;;;;;;;90.43;58.00;;;;;;;3.54;100.00;101098.69;5015209;28;20033;-70
2022/02/10 22:26:24;;;;;;;84.72;50.70;;;;;;;3.59;100.00;101128.09;5015055;28;20132;-70
2022/02/10 22:29:00;;;;;;;73.50;47.63;;;;;;;3.60;100.00;101087.94;5015036;28;20030;-70
2022/02/10 22:34:03;;;;;;;66.80;38.95;;;;;;;2.87;100.00;101063.06;5015123;28;20029;-70
2022/02/10 22:36:29;;;;;;;62.72;38.30;;;;;;;3.10;100.00;101089.50;5014900;28;20419;-70
2022/02/10 22:39:00;;;;;;;63.17;39.03;;;;;;;2.90;100.00;101145.13;5013463;28;20120;-69
2022/02/10 22:41:25;;;;;;;71.15;46.70;;;;;;;3.52;100.00;101127.16;5014753;28;20484;-70
2022/02/10 22:43:52;;;;;;;61.83;43.08;;;;;;;2.77;100.00;101138.16;5015008;28;20049;-70
2022/02/10 22:46:18;;;;;;;55.90;39.55;;;;;;;2.41;100.00;101062.91;5013497;28;20029;-71
2022/02/10 22:48:46;;;;;;;56.83;39.72;;;;;;;3.32;100.00;101104.16;5014718;28;20157;-70
2022/02/10 22:51:16;;;;;;;58.15;37.78;;;;;;;2.74;100.00;101086.22;5013425;28;20052;-70
2022/02/10 22:53:42;;;;;;;61.70;39.33;;;;;;;3.23;100.00;101120.69;5014640;28;20030;-70
2022/02/10 22:56:10;;;;;;;57.67;38.00;;;;;;;3.19;100.00;101079.59;5013055;28;20045;-70
2022/02/10 22:58:39;;;;;;;54.03;36.63;;;;;;;2.68;100.00;101108.66;5013347;28;20117;-69
2022/02/10 23:01:10;;;;;;;54.10;35.53;;;;;;;2.43;100.00;101053.75;5014200;28;20176;-70
2022/02/10 23:03:37;;;;;;;65.65;43.08;;;;;;;3.10;100.00;101093.66;5012688;28;20133;-69
2022/02/10 23:06:03;;;;;;;75.13;46.80;;;;;;;3.08;100.00;101078.56;5014167;28;20108;-69
2022/02/10 23:08:29;;;;;;;92.97;57.88;;;;;;;2.99;100.00;101095.13;5013904;28;20045;-69
2022/02/10 23:10:55;;;;;;;105.15;65.95;;;;;;;2.82;100.00;101067.13;5014738;28;20026;-70
2022/02/10 23:13:28;;;;;;;111.35;69.45;;;;;;;2.72;100.00;101105.41;5014537;28;20029;-70
2022/02/10 23:15:55;;;;;;;107.47;69.05;;;;;;;2.98;100.00;101091.75;5014231;28;20113;-70
2022/02/10 23:18:23;;;;;;;108.60;70.35;;;;;;;2.69;100.00;101089.44;5014086;28;20476;-70
2022/02/10 23:20:49;;;;;;;110.00;69.60;;;;;;;2.29;100.00;101032.53;5011158;28;20042;-69
2022/02/10 23:23:17;;;;;;;94.20;61.42;;;;;;;2.59;100.00;101053.28;5012635;28;20025;-70
2022/02/10 23:25:45;;;;;;;99.15;62.50;;;;;;;2.58;100.00;101028.97;5014301;28;20030;-70
2022/02/10 23:28:13;;;;;;;105.88;61.30;;;;;;;2.83;100.00;101070.50;5012751;28;20065;-70
2022/02/10 23:30:40;;;;;;;111.53;61.67;;;;;;;3.31;100.00;101056.38;5012923;28;20057;-70
2022/02/10 23:33:27;;;;;;;156.35;84.45;;;;;;;2.24;100.00;101039.13;5014043;28;20034;-70
2022/02/10 23:38:38;;;;;;;91.88;53.53;;;;;;;2.50;100.00;101031.34;5013829;28;20033;-72
2022/02/10 23:43:48;;;;;;;72.93;43.95;;;;;;;2.68;100.00;101045.94;5013470;28;20041;-70
2022/02/10 23:46:14;;;;;;;77.15;45.78;;;;;;;2.71;100.00;101037.63;5013176;28;20041;-70
2022/02/10 23:48:40;;;;;;;69.65;42.50;;;;;;;2.72;100.00;101021.72;5012215;28;20058;-70
2022/02/10 23:51:07;;;;;;;60.67;37.15;;;;;;;2.40;100.00;101066.22;5012029;28;20137;-70
2022/02/10 23:53:32;;;;;;;60.28;38.90;;;;;;;2.42;100.00;101054.53;5013620;28;20062;-70
2022/02/10 23:56:00;;;;;;;64.10;39.30;;;;;;;2.52;100.00;101036.38;5013456;28;20057;-71
